sensor_id;sensor_type;location;lat;lon;timestamp;P1;durP1;ratioP1;P2;durP2;ratioP2
59978;SDS011;45839;44.882;20.650;2023-07-09T00:00:33;10.82;;;4.57;;
59978;SDS011;45839;44.882;20.650;2023-07-09T00:02:59;8.45;;;4.45;;
59978;SDS011;45839;44.882;20.650;2023-07-09T00:05:25;10.48;;;4.22;;
59978;SDS011;45839;44.882;20.650;2023-07-09T00:07:51;8.70;;;4.47;;
59978;SDS011;45839;44.882;20.650;2023-07-09T00:10:18;9.57;;;4.22;;
59978;SDS011;45839;44.882;20.650;2023-07-09T00:12:44;9.15;;;4.22;;
59978;SDS011;45839;44.882;20.650;2023-07-09T00:15:12;9.40;;;4.40;;
59978;SDS011;45839;44.882;20.650;2023-07-09T00:17:38;9.25;;;4.10;;
59978;SDS011;45839;44.882;20.650;2023-07-09T00:20:05;7.95;;;4.30;;
59978;SDS011;45839;44.882;20.650;2023-07-09T00:22:38;7.80;;;4.22;;
59978;SDS011;45839;44.882;20.650;2023-07-09T00:25:04;9.15;;;4.40;;
59978;SDS011;45839;44.882;20.650;2023-07-09T00:27:30;8.82;;;4.10;;
59978;SDS011;45839;44.882;20.650;2023-07-09T00:29:56;6.85;;;3.97;;
59978;SDS011;45839;44.882;20.650;2023-07-09T00:32:22;9.02;;;4.18;;
59978;SDS011;45839;44.882;20.650;2023-07-09T00:34:50;7.72;;;3.67;;
59978;SDS011;45839;44.882;20.650;2023-07-09T00:37:19;6.45;;;3.50;;
59978;SDS011;45839;44.882;20.650;2023-07-09T00:39:46;7.22;;;3.25;;
59978;SDS011;45839;44.882;20.650;2023-07-09T00:42:15;9.40;;;3.60;;
59978;SDS011;45839;44.882;20.650;2023-07-09T00:44:46;9.82;;;3.53;;
59978;SDS011;45839;44.882;20.650;2023-07-09T00:47:14;8.15;;;4.05;;
59978;SDS011;45839;44.882;20.650;2023-07-09T00:49:42;7.22;;;3.17;;
59978;SDS011;45839;44.882;20.650;2023-07-09T00:52:21;7.45;;;3.88;;
59978;SDS011;45839;44.882;20.650;2023-07-09T00:54:48;8.00;;;3.90;;
59978;SDS011;45839;44.882;20.650;2023-07-09T00:57:17;7.53;;;3.40;;
59978;SDS011;45839;44.882;20.650;2023-07-09T00:59:53;7.25;;;3.47;;
59978;SDS011;45839;44.882;20.650;2023-07-09T01:02:21;7.47;;;3.25;;
59978;SDS011;45839;44.882;20.650;2023-07-09T01:04:49;10.95;;;3.35;;
59978;SDS011;45839;44.882;20.650;2023-07-09T01:07:15;6.50;;;3.53;;
59978;SDS011;45839;44.882;20.650;2023-07-09T01:09:42;8.52;;;3.92;;
59978;SDS011;45839;44.882;20.650;2023-07-09T01:12:08;8.95;;;3.63;;
59978;SDS011;45839;44.882;20.650;2023-07-09T01:14:35;8.50;;;3.47;;
59978;SDS011;45839;44.882;20.650;2023-07-09T01:17:03;9.43;;;3.90;;
59978;SDS011;45839;44.882;20.650;2023-07-09T01:19:35;7.45;;;3.85;;
59978;SDS011;45839;44.882;20.650;2023-07-09T01:22:08;8.57;;;4.00;;
59978;SDS011;45839;44.882;20.650;2023-07-09T01:30:04;8.45;;;4.30;;
59978;SDS011;45839;44.882;20.650;2023-07-09T01:32:31;9.90;;;4.25;;
59978;SDS011;45839;44.882;20.650;2023-07-09T01:34:59;11.07;;;4.25;;
59978;SDS011;45839;44.882;20.650;2023-07-09T01:37:30;9.90;;;3.60;;
59978;SDS011;45839;44.882;20.650;2023-07-09T01:39:56;10.57;;;4.18;;
59978;SDS011;45839;44.882;20.650;2023-07-09T01:42:24;10.05;;;4.60;;
59978;SDS011;45839;44.882;20.650;2023-07-09T01:44:54;9.30;;;4.53;;
59978;SDS011;45839;44.882;20.650;2023-07-09T01:47:20;9.05;;;4.60;;
59978;SDS011;45839;44.882;20.650;2023-07-09T01:49:49;8.43;;;4.60;;
59978;SDS011;45839;44.882;20.650;2023-07-09T01:52:15;11.15;;;4.25;;
59978;SDS011;45839;44.882;20.650;2023-07-09T01:54:44;8.90;;;4.30;;
59978;SDS011;45839;44.882;20.650;2023-07-09T01:59:40;10.25;;;3.88;;
59978;SDS011;45839;44.882;20.650;2023-07-09T02:02:07;7.50;;;4.18;;
59978;SDS011;45839;44.882;20.650;2023-07-09T02:04:33;9.40;;;4.20;;
59978;SDS011;45839;44.882;20.650;2023-07-09T02:06:59;8.35;;;4.53;;
59978;SDS011;45839;44.882;20.650;2023-07-09T02:09:25;7.32;;;4.38;;
59978;SDS011;45839;44.882;20.650;2023-07-09T02:11:51;9.77;;;4.47;;
59978;SDS011;45839;44.882;20.650;2023-07-09T02:14:18;8.95;;;5.25;;
59978;SDS011;45839;44.882;20.650;2023-07-09T02:16:44;8.85;;;5.07;;
59978;SDS011;45839;44.882;20.650;2023-07-09T02:19:10;10.43;;;4.75;;
59978;SDS011;45839;44.882;20.650;2023-07-09T02:21:36;9.02;;;5.20;;
59978;SDS011;45839;44.882;20.650;2023-07-09T02:24:02;10.25;;;4.75;;
59978;SDS011;45839;44.882;20.650;2023-07-09T02:26:29;10.05;;;4.78;;
59978;SDS011;45839;44.882;20.650;2023-07-09T02:28:55;11.80;;;5.82;;
59978;SDS011;45839;44.882;20.650;2023-07-09T02:31:21;9.93;;;5.18;;
59978;SDS011;45839;44.882;20.650;2023-07-09T02:33:47;8.13;;;4.70;;
59978;SDS011;45839;44.882;20.650;2023-07-09T02:36:13;9.43;;;4.97;;
59978;SDS011;45839;44.882;20.650;2023-07-09T02:38:39;10.48;;;5.10;;
59978;SDS011;45839;44.882;20.650;2023-07-09T02:41:05;8.57;;;5.20;;
59978;SDS011;45839;44.882;20.650;2023-07-09T02:43:31;7.95;;;4.70;;
59978;SDS011;45839;44.882;20.650;2023-07-09T02:45:57;8.48;;;4.60;;
59978;SDS011;45839;44.882;20.650;2023-07-09T02:48:23;9.63;;;5.18;;
59978;SDS011;45839;44.882;20.650;2023-07-09T02:50:49;12.27;;;5.78;;
59978;SDS011;45839;44.882;20.650;2023-07-09T02:53:15;10.02;;;5.25;;
59978;SDS011;45839;44.882;20.650;2023-07-09T02:55:41;9.98;;;5.18;;
59978;SDS011;45839;44.882;20.650;2023-07-09T02:58:07;10.50;;;5.25;;
59978;SDS011;45839;44.882;20.650;2023-07-09T03:00:33;8.98;;;4.78;;
59978;SDS011;45839;44.882;20.650;2023-07-09T03:02:59;10.63;;;5.28;;
59978;SDS011;45839;44.882;20.650;2023-07-09T03:05:25;8.75;;;5.03;;
59978;SDS011;45839;44.882;20.650;2023-07-09T03:07:51;9.93;;;4.80;;
59978;SDS011;45839;44.882;20.650;2023-07-09T03:10:17;10.75;;;5.20;;
59978;SDS011;45839;44.882;20.650;2023-07-09T03:12:43;8.13;;;4.95;;
59978;SDS011;45839;44.882;20.650;2023-07-09T03:15:09;8.85;;;4.70;;
59978;SDS011;45839;44.882;20.650;2023-07-09T03:17:35;10.02;;;5.20;;
59978;SDS011;45839;44.882;20.650;2023-07-09T03:20:01;7.90;;;4.90;;
59978;SDS011;45839;44.882;20.650;2023-07-09T03:22:27;10.40;;;5.40;;
59978;SDS011;45839;44.882;20.650;2023-07-09T03:24:54;8.90;;;4.90;;
59978;SDS011;45839;44.882;20.650;2023-07-09T03:27:20;9.38;;;5.40;;
59978;SDS011;45839;44.882;20.650;2023-07-09T03:29:46;10.82;;;5.40;;
59978;SDS011;45839;44.882;20.650;2023-07-09T03:32:12;9.48;;;6.13;;
59978;SDS011;45839;44.882;20.650;2023-07-09T03:34:38;11.43;;;5.85;;
59978;SDS011;45839;44.882;20.650;2023-07-09T03:37:04;11.52;;;5.57;;
59978;SDS011;45839;44.882;20.650;2023-07-09T03:39:30;11.27;;;7.00;;
59978;SDS011;45839;44.882;20.650;2023-07-09T03:41:56;10.60;;;6.70;;
59978;SDS011;45839;44.882;20.650;2023-07-09T03:44:22;11.27;;;6.30;;
59978;SDS011;45839;44.882;20.650;2023-07-09T03:46:48;12.85;;;7.80;;
59978;SDS011;45839;44.882;20.650;2023-07-09T03:49:14;11.73;;;7.13;;
59978;SDS011;45839;44.882;20.650;2023-07-09T03:51:40;11.07;;;6.95;;
59978;SDS011;45839;44.882;20.650;2023-07-09T03:54:06;12.60;;;7.80;;
59978;SDS011;45839;44.882;20.650;2023-07-09T03:56:32;11.15;;;8.40;;
59978;SDS011;45839;44.882;20.650;2023-07-09T03:58:59;14.52;;;8.18;;
59978;SDS011;45839;44.882;20.650;2023-07-09T04:01:25;13.43;;;7.70;;
59978;SDS011;45839;44.882;20.650;2023-07-09T04:03:51;15.07;;;7.70;;
59978;SDS011;45839;44.882;20.650;2023-07-09T04:06:17;12.80;;;7.13;;
59978;SDS011;45839;44.882;20.650;2023-07-09T04:08:43;12.05;;;7.05;;
59978;SDS011;45839;44.882;20.650;2023-07-09T04:11:09;12.15;;;6.65;;
59978;SDS011;45839;44.882;20.650;2023-07-09T04:13:35;10.55;;;6.22;;
59978;SDS011;45839;44.882;20.650;2023-07-09T04:16:01;10.45;;;6.15;;
59978;SDS011;45839;44.882;20.650;2023-07-09T04:18:27;13.48;;;7.57;;
59978;SDS011;45839;44.882;20.650;2023-07-09T04:20:53;17.25;;;7.55;;
59978;SDS011;45839;44.882;20.650;2023-07-09T04:23:19;18.90;;;9.30;;
59978;SDS011;45839;44.882;20.650;2023-07-09T04:25:46;12.05;;;6.70;;
59978;SDS011;45839;44.882;20.650;2023-07-09T04:28:12;11.60;;;6.57;;
59978;SDS011;45839;44.882;20.650;2023-07-09T04:30:38;16.80;;;9.48;;
59978;SDS011;45839;44.882;20.650;2023-07-09T04:33:04;35.67;;;14.57;;
59978;SDS011;45839;44.882;20.650;2023-07-09T04:35:30;17.33;;;8.48;;
59978;SDS011;45839;44.882;20.650;2023-07-09T04:37:56;11.93;;;6.38;;
59978;SDS011;45839;44.882;20.650;2023-07-09T04:40:22;13.93;;;7.78;;
59978;SDS011;45839;44.882;20.650;2023-07-09T04:42:48;14.10;;;7.35;;
59978;SDS011;45839;44.882;20.650;2023-07-09T04:45:14;10.95;;;6.40;;
59978;SDS011;45839;44.882;20.650;2023-07-09T04:47:40;12.02;;;6.93;;
59978;SDS011;45839;44.882;20.650;2023-07-09T04:50:07;11.32;;;6.07;;
59978;SDS011;45839;44.882;20.650;2023-07-09T04:52:33;8.85;;;5.65;;
59978;SDS011;45839;44.882;20.650;2023-07-09T04:54:59;10.38;;;5.55;;
59978;SDS011;45839;44.882;20.650;2023-07-09T04:57:26;10.25;;;5.80;;
59978;SDS011;45839;44.882;20.650;2023-07-09T04:59:53;9.02;;;5.80;;
59978;SDS011;45839;44.882;20.650;2023-07-09T05:02:19;9.85;;;5.72;;
59978;SDS011;45839;44.882;20.650;2023-07-09T05:04:45;10.20;;;5.43;;
59978;SDS011;45839;44.882;20.650;2023-07-09T05:07:11;11.77;;;5.85;;
59978;SDS011;45839;44.882;20.650;2023-07-09T05:09:38;9.18;;;5.85;;
59978;SDS011;45839;44.882;20.650;2023-07-09T05:12:04;9.90;;;5.45;;
59978;SDS011;45839;44.882;20.650;2023-07-09T05:14:30;10.93;;;5.05;;
59978;SDS011;45839;44.882;20.650;2023-07-09T05:16:56;10.20;;;5.53;;
59978;SDS011;45839;44.882;20.650;2023-07-09T05:19:22;9.60;;;5.43;;
59978;SDS011;45839;44.882;20.650;2023-07-09T05:21:48;10.27;;;5.38;;
59978;SDS011;45839;44.882;20.650;2023-07-09T05:24:14;7.75;;;5.18;;
59978;SDS011;45839;44.882;20.650;2023-07-09T05:26:40;11.95;;;5.03;;
59978;SDS011;45839;44.882;20.650;2023-07-09T05:29:06;8.85;;;4.82;;
59978;SDS011;45839;44.882;20.650;2023-07-09T05:31:32;7.93;;;4.72;;
59978;SDS011;45839;44.882;20.650;2023-07-09T05:33:59;8.57;;;4.80;;
59978;SDS011;45839;44.882;20.650;2023-07-09T05:36:26;8.35;;;4.72;;
59978;SDS011;45839;44.882;20.650;2023-07-09T05:38:52;8.70;;;5.03;;
59978;SDS011;45839;44.882;20.650;2023-07-09T05:41:18;9.05;;;4.90;;
59978;SDS011;45839;44.882;20.650;2023-07-09T05:43:44;11.15;;;4.95;;
59978;SDS011;45839;44.882;20.650;2023-07-09T05:46:12;7.75;;;4.65;;
59978;SDS011;45839;44.882;20.650;2023-07-09T05:48:38;10.88;;;4.78;;
59978;SDS011;45839;44.882;20.650;2023-07-09T05:51:04;7.60;;;4.47;;
59978;SDS011;45839;44.882;20.650;2023-07-09T05:53:30;8.93;;;4.25;;
59978;SDS011;45839;44.882;20.650;2023-07-09T05:55:59;7.82;;;4.03;;
59978;SDS011;45839;44.882;20.650;2023-07-09T05:58:25;9.07;;;4.10;;
59978;SDS011;45839;44.882;20.650;2023-07-09T06:00:52;8.45;;;4.75;;
59978;SDS011;45839;44.882;20.650;2023-07-09T06:03:19;7.50;;;3.80;;
59978;SDS011;45839;44.882;20.650;2023-07-09T06:05:45;7.43;;;4.30;;
59978;SDS011;45839;44.882;20.650;2023-07-09T06:08:11;8.77;;;3.85;;
59978;SDS011;45839;44.882;20.650;2023-07-09T06:10:38;9.25;;;4.82;;
59978;SDS011;45839;44.882;20.650;2023-07-09T06:13:07;9.43;;;4.80;;
59978;SDS011;45839;44.882;20.650;2023-07-09T06:15:33;8.25;;;5.30;;
59978;SDS011;45839;44.882;20.650;2023-07-09T06:17:59;8.27;;;4.50;;
59978;SDS011;45839;44.882;20.650;2023-07-09T06:20:25;7.88;;;5.03;;
59978;SDS011;45839;44.882;20.650;2023-07-09T06:22:51;9.50;;;6.15;;
59978;SDS011;45839;44.882;20.650;2023-07-09T06:25:17;14.73;;;8.90;;
59978;SDS011;45839;44.882;20.650;2023-07-09T06:27:43;27.65;;;21.40;;
59978;SDS011;45839;44.882;20.650;2023-07-09T06:30:09;9.25;;;5.97;;
59978;SDS011;45839;44.882;20.650;2023-07-09T06:32:35;8.77;;;5.53;;
59978;SDS011;45839;44.882;20.650;2023-07-09T06:35:01;11.20;;;6.10;;
59978;SDS011;45839;44.882;20.650;2023-07-09T06:37:27;8.90;;;6.40;;
59978;SDS011;45839;44.882;20.650;2023-07-09T06:39:53;8.23;;;5.20;;
59978;SDS011;45839;44.882;20.650;2023-07-09T06:42:19;8.63;;;5.40;;
59978;SDS011;45839;44.882;20.650;2023-07-09T06:44:45;7.35;;;4.60;;
59978;SDS011;45839;44.882;20.650;2023-07-09T06:47:11;12.27;;;7.82;;
59978;SDS011;45839;44.882;20.650;2023-07-09T06:49:37;8.88;;;4.18;;
59978;SDS011;45839;44.882;20.650;2023-07-09T06:52:03;147.45;;;112.15;;
59978;SDS011;45839;44.882;20.650;2023-07-09T06:54:29;132.57;;;108.28;;
59978;SDS011;45839;44.882;20.650;2023-07-09T06:56:55;80.85;;;65.88;;
59978;SDS011;45839;44.882;20.650;2023-07-09T06:59:21;128.55;;;103.68;;
59978;SDS011;45839;44.882;20.650;2023-07-09T07:01:48;165.18;;;146.27;;
59978;SDS011;45839;44.882;20.650;2023-07-09T07:04:14;19.52;;;16.05;;
59978;SDS011;45839;44.882;20.650;2023-07-09T07:06:40;14.23;;;10.35;;
59978;SDS011;45839;44.882;20.650;2023-07-09T07:09:06;9.32;;;5.25;;
59978;SDS011;45839;44.882;20.650;2023-07-09T07:11:33;12.98;;;6.55;;
59978;SDS011;45839;44.882;20.650;2023-07-09T07:13:59;6.25;;;4.05;;
59978;SDS011;45839;44.882;20.650;2023-07-09T07:16:25;5.88;;;2.92;;
59978;SDS011;45839;44.882;20.650;2023-07-09T07:18:51;7.60;;;3.55;;
59978;SDS011;45839;44.882;20.650;2023-07-09T07:21:17;7.25;;;2.83;;
59978;SDS011;45839;44.882;20.650;2023-07-09T07:23:43;11.13;;;5.93;;
59978;SDS011;45839;44.882;20.650;2023-07-09T07:26:09;6.40;;;3.38;;
59978;SDS011;45839;44.882;20.650;2023-07-09T07:28:35;10.38;;;4.40;;
59978;SDS011;45839;44.882;20.650;2023-07-09T07:31:03;8.45;;;5.00;;
59978;SDS011;45839;44.882;20.650;2023-07-09T07:33:29;9.43;;;3.70;;
59978;SDS011;45839;44.882;20.650;2023-07-09T07:35:55;19.17;;;14.75;;
59978;SDS011;45839;44.882;20.650;2023-07-09T07:38:21;6.70;;;3.95;;
59978;SDS011;45839;44.882;20.650;2023-07-09T07:40:47;6.18;;;2.88;;
59978;SDS011;45839;44.882;20.650;2023-07-09T07:43:13;9.25;;;5.90;;
59978;SDS011;45839;44.882;20.650;2023-07-09T07:45:40;6.15;;;2.72;;
59978;SDS011;45839;44.882;20.650;2023-07-09T07:48:06;5.80;;;2.60;;
59978;SDS011;45839;44.882;20.650;2023-07-09T07:50:32;10.63;;;2.80;;
59978;SDS011;45839;44.882;20.650;2023-07-09T07:52:58;5.10;;;2.50;;
59978;SDS011;45839;44.882;20.650;2023-07-09T07:55:24;4.85;;;2.40;;
59978;SDS011;45839;44.882;20.650;2023-07-09T07:57:50;5.47;;;2.72;;
59978;SDS011;45839;44.882;20.650;2023-07-09T08:00:17;5.47;;;2.63;;
59978;SDS011;45839;44.882;20.650;2023-07-09T08:02:43;8.00;;;3.60;;
59978;SDS011;45839;44.882;20.650;2023-07-09T08:05:09;6.03;;;3.03;;
59978;SDS011;45839;44.882;20.650;2023-07-09T08:07:35;6.30;;;2.50;;
59978;SDS011;45839;44.882;20.650;2023-07-09T08:10:01;7.07;;;2.60;;
59978;SDS011;45839;44.882;20.650;2023-07-09T08:12:27;4.25;;;2.28;;
59978;SDS011;45839;44.882;20.650;2023-07-09T08:14:53;5.95;;;2.67;;
59978;SDS011;45839;44.882;20.650;2023-07-09T08:17:19;6.35;;;2.30;;
59978;SDS011;45839;44.882;20.650;2023-07-09T08:22:11;6.38;;;3.00;;
59978;SDS011;45839;44.882;20.650;2023-07-09T08:24:37;5.40;;;2.70;;
59978;SDS011;45839;44.882;20.650;2023-07-09T08:27:05;5.07;;;2.70;;
59978;SDS011;45839;44.882;20.650;2023-07-09T08:29:31;5.40;;;2.28;;
59978;SDS011;45839;44.882;20.650;2023-07-09T08:31:57;6.18;;;2.50;;
59978;SDS011;45839;44.882;20.650;2023-07-09T08:34:23;4.22;;;2.10;;
59978;SDS011;45839;44.882;20.650;2023-07-09T08:36:49;4.95;;;2.25;;
59978;SDS011;45839;44.882;20.650;2023-07-09T08:39:15;5.05;;;2.67;;
59978;SDS011;45839;44.882;20.650;2023-07-09T08:41:45;7.35;;;2.75;;
59978;SDS011;45839;44.882;20.650;2023-07-09T08:46:58;7.30;;;2.45;;
59978;SDS011;45839;44.882;20.650;2023-07-09T08:52:31;5.10;;;2.25;;
59978;SDS011;45839;44.882;20.650;2023-07-09T08:54:59;5.13;;;2.15;;
59978;SDS011;45839;44.882;20.650;2023-07-09T08:57:37;7.13;;;2.42;;
59978;SDS011;45839;44.882;20.650;2023-07-09T09:00:13;5.03;;;1.70;;
59978;SDS011;45839;44.882;20.650;2023-07-09T09:02:44;6.55;;;2.10;;
59978;SDS011;45839;44.882;20.650;2023-07-09T09:05:13;8.13;;;2.00;;
59978;SDS011;45839;44.882;20.650;2023-07-09T09:07:41;7.05;;;2.00;;
59978;SDS011;45839;44.882;20.650;2023-07-09T09:10:14;4.53;;;2.17;;
59978;SDS011;45839;44.882;20.650;2023-07-09T09:12:51;4.57;;;1.70;;
59978;SDS011;45839;44.882;20.650;2023-07-09T09:15:20;3.33;;;1.63;;
59978;SDS011;45839;44.882;20.650;2023-07-09T09:17:46;4.85;;;2.08;;
59978;SDS011;45839;44.882;20.650;2023-07-09T09:20:16;3.88;;;1.77;;
59978;SDS011;45839;44.882;20.650;2023-07-09T09:22:44;6.15;;;2.50;;
59978;SDS011;45839;44.882;20.650;2023-07-09T09:27:40;4.32;;;1.80;;
59978;SDS011;45839;44.882;20.650;2023-07-09T09:30:17;4.70;;;1.90;;
59978;SDS011;45839;44.882;20.650;2023-07-09T09:32:44;4.90;;;2.38;;
59978;SDS011;45839;44.882;20.650;2023-07-09T09:35:14;5.47;;;2.10;;
59978;SDS011;45839;44.882;20.650;2023-07-09T09:37:44;4.43;;;1.85;;
59978;SDS011;45839;44.882;20.650;2023-07-09T09:40:10;4.05;;;2.15;;
59978;SDS011;45839;44.882;20.650;2023-07-09T09:42:36;6.25;;;2.85;;
59978;SDS011;45839;44.882;20.650;2023-07-09T09:45:02;6.40;;;2.20;;
59978;SDS011;45839;44.882;20.650;2023-07-09T09:47:28;5.30;;;1.90;;
59978;SDS011;45839;44.882;20.650;2023-07-09T09:49:55;4.43;;;1.60;;
59978;SDS011;45839;44.882;20.650;2023-07-09T09:52:24;4.00;;;1.92;;
59978;SDS011;45839;44.882;20.650;2023-07-09T09:54:55;7.10;;;2.78;;
59978;SDS011;45839;44.882;20.650;2023-07-09T09:57:23;4.68;;;2.30;;
59978;SDS011;45839;44.882;20.650;2023-07-09T09:59:49;5.15;;;2.05;;
59978;SDS011;45839;44.882;20.650;2023-07-09T10:02:17;3.80;;;1.90;;
59978;SDS011;45839;44.882;20.650;2023-07-09T10:04:44;8.48;;;2.95;;
59978;SDS011;45839;44.882;20.650;2023-07-09T10:07:10;5.78;;;3.03;;
59978;SDS011;45839;44.882;20.650;2023-07-09T10:14:59;7.35;;;3.10;;
59978;SDS011;45839;44.882;20.650;2023-07-09T10:17:36;7.97;;;4.57;;
59978;SDS011;45839;44.882;20.650;2023-07-09T10:22:37;4.20;;;2.17;;
59978;SDS011;45839;44.882;20.650;2023-07-09T10:25:10;2.88;;;1.52;;
59978;SDS011;45839;44.882;20.650;2023-07-09T10:30:39;5.57;;;2.08;;
59978;SDS011;45839;44.882;20.650;2023-07-09T10:33:08;5.35;;;1.90;;
59978;SDS011;45839;44.882;20.650;2023-07-09T10:40:36;5.20;;;1.85;;
59978;SDS011;45839;44.882;20.650;2023-07-09T10:43:04;3.58;;;1.75;;
59978;SDS011;45839;44.882;20.650;2023-07-09T10:45:33;5.35;;;1.80;;
59978;SDS011;45839;44.882;20.650;2023-07-09T10:48:04;3.65;;;1.75;;
59978;SDS011;45839;44.882;20.650;2023-07-09T10:50:39;5.20;;;2.15;;
59978;SDS011;45839;44.882;20.650;2023-07-09T10:53:11;5.03;;;1.95;;
59978;SDS011;45839;44.882;20.650;2023-07-09T10:55:49;8.18;;;3.53;;
59978;SDS011;45839;44.882;20.650;2023-07-09T10:58:22;7.80;;;4.30;;
59978;SDS011;45839;44.882;20.650;2023-07-09T11:00:50;5.43;;;2.55;;
59978;SDS011;45839;44.882;20.650;2023-07-09T11:03:19;4.80;;;2.65;;
59978;SDS011;45839;44.882;20.650;2023-07-09T11:05:45;8.38;;;4.38;;
59978;SDS011;45839;44.882;20.650;2023-07-09T11:08:16;9.20;;;5.53;;
59978;SDS011;45839;44.882;20.650;2023-07-09T11:10:46;7.60;;;3.35;;
59978;SDS011;45839;44.882;20.650;2023-07-09T11:13:18;5.15;;;2.50;;
59978;SDS011;45839;44.882;20.650;2023-07-09T11:15:48;11.07;;;7.10;;
59978;SDS011;45839;44.882;20.650;2023-07-09T11:18:22;6.65;;;3.30;;
59978;SDS011;45839;44.882;20.650;2023-07-09T11:20:55;4.05;;;2.10;;
59978;SDS011;45839;44.882;20.650;2023-07-09T11:23:22;21.92;;;14.63;;
59978;SDS011;45839;44.882;20.650;2023-07-09T11:26:00;11.77;;;5.15;;
59978;SDS011;45839;44.882;20.650;2023-07-09T11:28:34;7.93;;;4.55;;
59978;SDS011;45839;44.882;20.650;2023-07-09T11:31:04;4.80;;;2.20;;
59978;SDS011;45839;44.882;20.650;2023-07-09T11:33:31;7.85;;;3.80;;
59978;SDS011;45839;44.882;20.650;2023-07-09T11:38:40;5.90;;;2.65;;
59978;SDS011;45839;44.882;20.650;2023-07-09T11:43:52;4.55;;;2.40;;
59978;SDS011;45839;44.882;20.650;2023-07-09T11:46:18;6.75;;;2.47;;
59978;SDS011;45839;44.882;20.650;2023-07-09T11:48:46;5.55;;;2.80;;
59978;SDS011;45839;44.882;20.650;2023-07-09T11:51:17;8.10;;;2.45;;
59978;SDS011;45839;44.882;20.650;2023-07-09T11:56:09;6.68;;;2.35;;
59978;SDS011;45839;44.882;20.650;2023-07-09T11:58:35;5.20;;;2.63;;
59978;SDS011;45839;44.882;20.650;2023-07-09T12:01:01;5.10;;;3.00;;
59978;SDS011;45839;44.882;20.650;2023-07-09T12:03:30;4.10;;;2.05;;
59978;SDS011;45839;44.882;20.650;2023-07-09T12:06:02;5.32;;;2.25;;
59978;SDS011;45839;44.882;20.650;2023-07-09T12:08:33;9.73;;;2.22;;
59978;SDS011;45839;44.882;20.650;2023-07-09T12:10:59;5.95;;;1.92;;
59978;SDS011;45839;44.882;20.650;2023-07-09T12:13:26;5.55;;;2.60;;
59978;SDS011;45839;44.882;20.650;2023-07-09T12:15:52;6.38;;;2.33;;
59978;SDS011;45839;44.882;20.650;2023-07-09T12:18:18;5.22;;;2.42;;
59978;SDS011;45839;44.882;20.650;2023-07-09T12:20:47;4.43;;;2.42;;
59978;SDS011;45839;44.882;20.650;2023-07-09T12:23:30;3.90;;;2.08;;
59978;SDS011;45839;44.882;20.650;2023-07-09T12:25:59;4.85;;;2.08;;
59978;SDS011;45839;44.882;20.650;2023-07-09T12:28:25;4.60;;;2.10;;
59978;SDS011;45839;44.882;20.650;2023-07-09T12:30:52;7.20;;;2.80;;
59978;SDS011;45839;44.882;20.650;2023-07-09T12:33:19;4.47;;;2.10;;
59978;SDS011;45839;44.882;20.650;2023-07-09T12:35:46;6.93;;;2.22;;
59978;SDS011;45839;44.882;20.650;2023-07-09T12:38:19;4.97;;;2.05;;
59978;SDS011;45839;44.882;20.650;2023-07-09T12:40:46;5.95;;;2.10;;
59978;SDS011;45839;44.882;20.650;2023-07-09T12:43:13;3.10;;;1.80;;
59978;SDS011;45839;44.882;20.650;2023-07-09T12:45:39;5.72;;;2.38;;
59978;SDS011;45839;44.882;20.650;2023-07-09T12:48:05;4.63;;;2.75;;
59978;SDS011;45839;44.882;20.650;2023-07-09T12:50:34;4.32;;;2.20;;
59978;SDS011;45839;44.882;20.650;2023-07-09T12:53:02;4.10;;;2.20;;
59978;SDS011;45839;44.882;20.650;2023-07-09T12:55:28;9.68;;;2.80;;
59978;SDS011;45839;44.882;20.650;2023-07-09T12:57:57;5.20;;;2.38;;
59978;SDS011;45839;44.882;20.650;2023-07-09T13:00:30;3.47;;;1.90;;
59978;SDS011;45839;44.882;20.650;2023-07-09T13:02:57;3.85;;;2.15;;
59978;SDS011;45839;44.882;20.650;2023-07-09T13:05:24;4.10;;;2.22;;
59978;SDS011;45839;44.882;20.650;2023-07-09T13:07:57;3.55;;;1.80;;
59978;SDS011;45839;44.882;20.650;2023-07-09T13:10:26;5.30;;;1.83;;
59978;SDS011;45839;44.882;20.650;2023-07-09T13:12:54;4.80;;;2.40;;
59978;SDS011;45839;44.882;20.650;2023-07-09T13:15:31;6.25;;;2.05;;
59978;SDS011;45839;44.882;20.650;2023-07-09T13:17:58;4.88;;;2.90;;
59978;SDS011;45839;44.882;20.650;2023-07-09T13:20:24;4.20;;;2.10;;
59978;SDS011;45839;44.882;20.650;2023-07-09T13:22:50;4.40;;;1.98;;
59978;SDS011;45839;44.882;20.650;2023-07-09T13:25:16;56.88;;;42.50;;
59978;SDS011;45839;44.882;20.650;2023-07-09T13:27:42;67.70;;;53.25;;
59978;SDS011;45839;44.882;20.650;2023-07-09T13:30:09;32.13;;;26.33;;
59978;SDS011;45839;44.882;20.650;2023-07-09T13:32:36;35.25;;;28.25;;
59978;SDS011;45839;44.882;20.650;2023-07-09T13:35:02;27.70;;;21.27;;
59978;SDS011;45839;44.882;20.650;2023-07-09T13:37:28;47.22;;;42.53;;
59978;SDS011;45839;44.882;20.650;2023-07-09T13:39:54;60.45;;;50.72;;
59978;SDS011;45839;44.882;20.650;2023-07-09T13:42:20;63.97;;;57.65;;
59978;SDS011;45839;44.882;20.650;2023-07-09T13:44:47;24.30;;;18.48;;
59978;SDS011;45839;44.882;20.650;2023-07-09T13:47:15;14.05;;;8.95;;
59978;SDS011;45839;44.882;20.650;2023-07-09T13:49:42;20.23;;;13.45;;
59978;SDS011;45839;44.882;20.650;2023-07-09T13:52:16;96.30;;;82.30;;
59978;SDS011;45839;44.882;20.650;2023-07-09T13:54:43;19.65;;;15.52;;
59978;SDS011;45839;44.882;20.650;2023-07-09T13:57:15;16.33;;;8.25;;
59978;SDS011;45839;44.882;20.650;2023-07-09T13:59:41;16.02;;;5.85;;
59978;SDS011;45839;44.882;20.650;2023-07-09T14:02:29;11.88;;;7.07;;
59978;SDS011;45839;44.882;20.650;2023-07-09T14:04:57;6.63;;;3.20;;
59978;SDS011;45839;44.882;20.650;2023-07-09T14:09:52;20.42;;;17.05;;
59978;SDS011;45839;44.882;20.650;2023-07-09T14:12:18;45.72;;;41.40;;
59978;SDS011;45839;44.882;20.650;2023-07-09T14:14:44;23.67;;;21.40;;
59978;SDS011;45839;44.882;20.650;2023-07-09T14:17:12;17.10;;;14.07;;
59978;SDS011;45839;44.882;20.650;2023-07-09T14:19:38;8.70;;;5.30;;
59978;SDS011;45839;44.882;20.650;2023-07-09T14:22:10;13.95;;;7.70;;
59978;SDS011;45839;44.882;20.650;2023-07-09T14:24:41;10.98;;;4.47;;
59978;SDS011;45839;44.882;20.650;2023-07-09T14:27:07;8.80;;;5.10;;
59978;SDS011;45839;44.882;20.650;2023-07-09T14:29:34;6.82;;;4.50;;
59978;SDS011;45839;44.882;20.650;2023-07-09T14:32:00;10.32;;;4.35;;
59978;SDS011;45839;44.882;20.650;2023-07-09T14:34:28;8.50;;;3.40;;
59978;SDS011;45839;44.882;20.650;2023-07-09T14:36:55;4.72;;;1.80;;
59978;SDS011;45839;44.882;20.650;2023-07-09T14:39:22;4.40;;;1.67;;
59978;SDS011;45839;44.882;20.650;2023-07-09T14:41:48;3.22;;;1.70;;
59978;SDS011;45839;44.882;20.650;2023-07-09T14:44:27;3.65;;;1.75;;
59978;SDS011;45839;44.882;20.650;2023-07-09T14:46:55;5.28;;;1.77;;
59978;SDS011;45839;44.882;20.650;2023-07-09T14:49:21;6.05;;;1.60;;
59978;SDS011;45839;44.882;20.650;2023-07-09T14:51:47;5.15;;;1.60;;
59978;SDS011;45839;44.882;20.650;2023-07-09T14:54:21;5.40;;;1.70;;
59978;SDS011;45839;44.882;20.650;2023-07-09T14:56:49;3.45;;;1.60;;
59978;SDS011;45839;44.882;20.650;2023-07-09T14:59:15;3.80;;;1.45;;
59978;SDS011;45839;44.882;20.650;2023-07-09T15:01:42;5.80;;;1.80;;
59978;SDS011;45839;44.882;20.650;2023-07-09T15:04:22;3.67;;;1.52;;
59978;SDS011;45839;44.882;20.650;2023-07-09T15:06:52;4.10;;;2.10;;
59978;SDS011;45839;44.882;20.650;2023-07-09T15:09:26;3.58;;;1.58;;
59978;SDS011;45839;44.882;20.650;2023-07-09T15:11:56;4.30;;;2.10;;
59978;SDS011;45839;44.882;20.650;2023-07-09T15:14:23;5.00;;;2.10;;